createdAt,value
2023-05-02T00:02:08.089Z,55.69
2023-05-02T00:04:36.413Z,55.80
2023-05-02T00:07:04.433Z,55.82
2023-05-02T00:09:32.315Z,56.16
2023-05-02T00:11:59.961Z,56.09
2023-05-02T00:14:27.638Z,56.12
2023-05-02T00:17:18.740Z,56.48
2023-05-02T00:19:47.256Z,56.42
2023-05-02T00:22:14.918Z,56.43
2023-05-02T00:24:42.670Z,56.68
2023-05-02T00:27:10.668Z,56.67
2023-05-02T00:29:38.859Z,56.74
2023-05-02T00:32:07.090Z,56.79
2023-05-02T00:34:34.823Z,56.96
2023-05-02T00:37:14.288Z,56.93
2023-05-02T00:39:42.037Z,57.09
2023-05-02T00:42:09.724Z,57.49
2023-05-02T00:44:37.383Z,57.51
2023-05-02T00:47:05.766Z,57.55
2023-05-02T00:49:33.898Z,57.55
2023-05-02T00:52:01.996Z,57.45
2023-05-02T00:54:31.387Z,57.46
2023-05-02T00:56:59.082Z,57.13
2023-05-02T00:59:27.253Z,57.25
2023-05-02T01:02:33.711Z,57.35
2023-05-02T01:05:23.140Z,57.40
2023-05-02T01:08:15.120Z,57.50
2023-05-02T01:10:48.964Z,57.43
2023-05-02T01:13:28.441Z,57.82
2023-05-02T01:16:00.099Z,57.65
2023-05-02T01:18:35.722Z,57.55
2023-05-02T01:21:07.978Z,57.55
2023-05-02T01:23:46.223Z,57.75
2023-05-02T01:26:21.896Z,57.70
2023-05-02T01:29:17.777Z,57.90
2023-05-02T01:31:49.812Z,57.78
2023-05-02T01:34:20.062Z,57.84
2023-05-02T01:37:14.612Z,57.71
2023-05-02T01:39:44.302Z,58.33
2023-05-02T01:42:13.657Z,58.06
2023-05-02T01:44:42.525Z,57.85
2023-05-02T01:47:10.763Z,57.91
2023-05-02T01:50:05.374Z,57.91
2023-05-02T01:52:33.715Z,57.96
2023-05-02T01:55:04.057Z,57.90
2023-05-02T01:57:32.716Z,58.04
2023-05-02T02:00:02.031Z,58.27
2023-05-02T02:02:31.073Z,58.22
2023-05-02T02:05:01.313Z,58.25
2023-05-02T02:07:29.184Z,58.40
2023-05-02T02:09:57.232Z,58.62
2023-05-02T02:12:28.957Z,58.71
2023-05-02T02:15:02.243Z,58.64
2023-05-02T02:17:38.190Z,58.72
2023-05-02T02:20:10.421Z,58.80
2023-05-02T02:22:41.395Z,58.95
2023-05-02T02:25:13.107Z,59.02
2023-05-02T02:27:41.883Z,59.06
2023-05-02T02:30:11.010Z,58.92
2023-05-02T02:32:38.901Z,58.99
2023-05-02T02:35:07.393Z,59.31
2023-05-02T02:37:41.172Z,59.53
2023-05-02T02:40:40.061Z,59.74
2023-05-02T02:43:29.887Z,59.96
2023-05-02T02:46:09.556Z,59.89
2023-05-02T02:48:53.918Z,59.86
2023-05-02T02:51:47.055Z,60.08
2023-05-02T02:54:27.402Z,60.10
2023-05-02T02:57:13.080Z,59.96
2023-05-02T02:59:51.970Z,60.26
2023-05-02T03:02:27.599Z,60.53
2023-05-02T03:04:57.481Z,60.88
2023-05-02T03:07:28.692Z,60.74
2023-05-02T03:09:56.314Z,60.81
2023-05-02T03:12:23.938Z,61.13
2023-05-02T03:14:53.054Z,61.15
2023-05-02T03:17:21.257Z,61.28
2023-05-02T03:19:48.909Z,61.51
2023-05-02T03:22:16.600Z,61.47
2023-05-02T03:24:44.214Z,61.70
2023-05-02T03:27:12.178Z,61.61
2023-05-02T03:29:39.883Z,61.74
2023-05-02T03:32:07.681Z,61.83
2023-05-02T03:34:35.855Z,61.96
2023-05-02T03:37:03.514Z,62.21
2023-05-02T03:39:31.138Z,62.25
2023-05-02T03:41:58.775Z,62.37
2023-05-02T03:44:26.569Z,62.27
2023-05-02T03:46:54.290Z,62.54
2023-05-02T03:49:21.996Z,62.68
2023-05-02T03:51:49.736Z,62.73
2023-05-02T03:54:32.609Z,62.85
2023-05-02T03:57:01.081Z,62.54
2023-05-02T03:59:30.409Z,62.83
2023-05-02T04:01:58.103Z,63.09
2023-05-02T04:04:25.894Z,62.83
2023-05-02T04:06:53.711Z,63.01
2023-05-02T04:09:25.309Z,62.90
2023-05-02T04:11:54.363Z,62.96
2023-05-02T04:14:22.183Z,62.57
2023-05-02T04:16:50.763Z,62.50
2023-05-02T04:19:19.467Z,63.07
2023-05-02T04:21:47.085Z,62.74
2023-05-02T04:24:14.928Z,63.05
2023-05-02T04:26:42.641Z,63.22
2023-05-02T04:30:01.233Z,63.15
2023-05-02T04:32:29.544Z,63.07
2023-05-02T04:34:57.286Z,62.98
2023-05-02T04:37:25.781Z,63.06
2023-05-02T04:39:53.508Z,62.99
2023-05-02T04:42:21.455Z,62.92
2023-05-02T04:44:49.622Z,62.87
2023-05-02T04:47:17.325Z,63.14
2023-05-02T04:50:13.424Z,63.15
2023-05-02T04:52:41.087Z,63.19
2023-05-02T04:55:09.308Z,63.43
2023-05-02T04:57:37.105Z,63.14
2023-05-02T05:00:05.736Z,63.03
2023-05-02T05:02:33.486Z,63.06
2023-05-02T05:05:02.665Z,62.81
2023-05-02T05:07:32.526Z,62.67
2023-05-02T05:10:00.658Z,62.44
2023-05-02T05:12:55.986Z,62.48
2023-05-02T05:15:26.107Z,62.60
2023-05-02T05:17:54.272Z,62.41
2023-05-02T05:24:12.545Z,61.42
2023-05-02T05:26:40.834Z,61.11
2023-05-02T05:29:09.086Z,59.90
2023-05-02T05:31:37.505Z,58.23
2023-05-02T05:34:05.807Z,56.39
2023-05-02T05:37:38.980Z,54.34
2023-05-02T05:40:09.117Z,52.44
2023-05-02T05:46:26.192Z,50.66
2023-05-02T05:48:54.517Z,50.55
2023-05-02T05:51:22.548Z,50.29
2023-05-02T05:53:50.761Z,49.13
2023-05-02T05:56:19.012Z,48.46
2023-05-02T05:58:47.443Z,48.32
2023-05-02T06:01:15.568Z,47.71
2023-05-02T06:03:43.976Z,47.98
2023-05-02T06:06:12.043Z,48.28
2023-05-02T06:08:39.699Z,48.60
2023-05-02T06:11:11.690Z,48.20
2023-05-02T06:13:39.508Z,48.11
2023-05-02T06:16:07.531Z,47.55
2023-05-02T06:19:26.071Z,47.67
2023-05-02T06:21:54.337Z,47.04
2023-05-02T06:24:21.986Z,46.76
2023-05-02T06:26:51.693Z,46.32
2023-05-02T06:29:19.708Z,45.60
2023-05-02T06:31:47.460Z,45.38
2023-05-02T06:34:15.216Z,45.50
2023-05-02T06:36:42.839Z,45.35
2023-05-02T06:39:10.523Z,45.85
2023-05-02T06:41:38.273Z,46.64
2023-05-02T06:44:06.022Z,47.78
2023-05-02T06:46:33.942Z,47.32
2023-05-02T06:49:01.736Z,47.25
2023-05-02T06:51:29.689Z,47.06
2023-05-02T06:53:57.347Z,46.59
2023-05-02T06:56:26.178Z,45.31
2023-05-02T06:58:54.000Z,44.98
2023-05-02T07:01:21.721Z,44.78
2023-05-02T07:03:49.543Z,44.53
2023-05-02T07:06:42.868Z,44.87
2023-05-02T07:09:10.746Z,45.05
2023-05-02T07:11:38.460Z,43.60
2023-05-02T07:14:06.119Z,44.10
2023-05-02T07:16:33.971Z,43.57
2023-05-02T07:19:27.010Z,43.41
2023-05-02T07:21:54.709Z,42.93
2023-05-02T07:24:22.352Z,43.02
2023-05-02T07:26:50.084Z,41.99
2023-05-02T07:29:17.818Z,41.39
2023-05-02T07:31:45.758Z,40.03
2023-05-02T07:34:13.542Z,39.57
2023-05-02T07:36:41.312Z,38.45
2023-05-02T07:39:15.054Z,38.96
2023-05-02T07:41:42.873Z,39.51
2023-05-02T07:44:11.697Z,38.77
2023-05-02T07:46:39.413Z,38.94
2023-05-02T07:49:07.237Z,38.69
2023-05-02T07:51:34.949Z,37.92
2023-05-02T07:54:02.718Z,37.46
2023-05-02T07:56:30.397Z,37.27
2023-05-02T07:59:15.485Z,36.91
2023-05-02T08:01:43.863Z,37.03
2023-05-02T08:04:11.892Z,36.84
2023-05-02T08:06:39.846Z,36.39
2023-05-02T08:09:07.589Z,36.62
2023-05-02T08:11:35.244Z,36.32
2023-05-02T08:14:02.981Z,36.04
2023-05-02T08:16:30.848Z,36.43
2023-05-02T08:18:58.654Z,35.19
2023-05-02T08:21:27.616Z,34.62
2023-05-02T08:23:59.091Z,35.04
2023-05-02T08:26:36.683Z,35.21
2023-05-02T08:29:04.714Z,35.53
2023-05-02T08:31:51.648Z,35.14
2023-05-02T08:34:19.428Z,35.20
2023-05-02T08:36:47.646Z,34.64
2023-05-02T08:39:16.997Z,33.53
2023-05-02T08:41:45.071Z,32.71
2023-05-02T08:44:12.823Z,33.79
2023-05-02T08:46:42.201Z,34.45
2023-05-02T08:49:15.743Z,34.21
2023-05-02T08:51:51.538Z,34.27
2023-05-02T08:54:21.312Z,34.44
2023-05-02T08:56:49.375Z,33.65
2023-05-02T08:59:16.995Z,32.89
2023-05-02T09:01:49.885Z,32.64
2023-05-02T09:04:23.799Z,32.84
2023-05-02T09:07:42.052Z,33.15
2023-05-02T09:10:10.009Z,33.05
2023-05-02T09:12:37.716Z,32.59
2023-05-02T09:15:18.957Z,32.31
2023-05-02T09:17:48.816Z,33.43
2023-05-02T09:20:17.167Z,34.93
2023-05-02T09:22:50.617Z,34.75
2023-05-02T09:25:20.183Z,34.33
2023-05-02T09:28:01.512Z,34.82
2023-05-02T09:30:29.218Z,35.62
2023-05-02T09:32:56.926Z,36.34
2023-05-02T09:35:24.919Z,35.19
2023-05-02T09:37:57.552Z,34.38
2023-05-02T09:40:27.570Z,34.28
2023-05-02T09:42:56.157Z,34.91
2023-05-02T09:45:25.786Z,36.66
2023-05-02T09:47:53.810Z,37.07
2023-05-02T09:50:38.246Z,37.36
2023-05-02T09:53:09.600Z,37.22
2023-05-02T09:55:37.820Z,37.61
2023-05-02T09:58:06.124Z,38.41
2023-05-02T10:00:44.777Z,38.17
2023-05-02T10:03:16.881Z,38.12
2023-05-02T10:05:46.347Z,38.33
2023-05-02T10:08:16.436Z,37.70
2023-05-02T10:10:50.374Z,37.28
2023-05-02T10:13:21.497Z,37.15
2023-05-02T10:16:00.702Z,36.80
2023-05-02T10:18:52.623Z,37.30
2023-05-02T10:21:27.398Z,37.70
2023-05-02T10:23:55.397Z,38.86
2023-05-02T10:26:23.648Z,39.91
2023-05-02T10:28:52.259Z,40.09
2023-05-02T10:31:21.604Z,40.19
2023-05-02T10:34:17.069Z,39.76
2023-05-02T10:36:44.934Z,39.94
2023-05-02T10:39:12.704Z,40.99
2023-05-02T10:41:41.951Z,42.36
2023-05-02T10:44:09.869Z,43.01
2023-05-02T10:46:43.350Z,43.91
2023-05-02T10:49:12.866Z,44.80
2023-05-02T10:51:42.279Z,44.94
2023-05-02T10:54:35.241Z,44.99
2023-05-02T10:57:04.483Z,46.07
2023-05-02T10:59:34.831Z,46.72
2023-05-02T11:02:04.527Z,47.85
2023-05-02T11:05:04.205Z,47.78
2023-05-02T11:07:34.514Z,49.07
2023-05-02T11:10:17.709Z,49.66
2023-05-02T11:12:49.377Z,50.13
2023-05-02T11:15:23.152Z,49.82
2023-05-02T11:18:03.976Z,49.99
2023-05-02T11:20:32.570Z,50.98
2023-05-02T11:23:26.762Z,50.85
2023-05-02T11:26:00.709Z,51.69
2023-05-02T11:28:48.016Z,55.85
2023-05-02T11:31:28.606Z,58.93
2023-05-02T11:34:15.387Z,60.85
2023-05-02T11:36:43.481Z,63.01
2023-05-02T11:39:21.126Z,64.44
2023-05-02T11:42:39.986Z,65.61
2023-05-02T11:45:09.265Z,68.04
2023-05-02T11:47:37.521Z,69.59
2023-05-02T11:50:06.143Z,69.13
2023-05-02T11:52:41.911Z,67.58
2023-05-02T11:55:15.023Z,66.48
2023-05-02T11:57:43.060Z,65.64
2023-05-02T12:00:12.011Z,64.24
2023-05-02T12:02:42.461Z,63.99
2023-05-02T12:05:12.550Z,63.53
2023-05-02T12:07:49.187Z,63.28
2023-05-02T12:10:17.272Z,62.57
2023-05-02T12:12:45.088Z,61.44
2023-05-02T12:15:13.420Z,60.79
2023-05-02T12:17:43.698Z,58.89
2023-05-02T12:20:12.493Z,58.03
2023-05-02T12:22:40.580Z,56.31
2023-05-02T12:25:08.771Z,53.63
2023-05-02T12:27:38.185Z,50.37
2023-05-02T12:30:06.811Z,48.07
2023-05-02T12:32:36.525Z,47.28
2023-05-02T12:35:04.657Z,46.58
2023-05-02T12:37:32.428Z,44.15
2023-05-02T12:40:00.804Z,42.73
2023-05-02T12:42:28.929Z,41.62
2023-05-02T12:44:57.111Z,40.73
2023-05-02T12:47:25.376Z,40.83
2023-05-02T12:49:56.415Z,39.18
2023-05-02T12:52:48.416Z,38.49
2023-05-02T12:55:27.355Z,38.13
2023-05-02T12:58:02.164Z,38.98
2023-05-02T13:00:35.320Z,38.46
2023-05-02T13:03:04.126Z,39.85
2023-05-02T13:05:31.933Z,40.33
2023-05-02T13:07:59.917Z,40.92
2023-05-02T13:10:28.361Z,41.54
2023-05-02T13:12:56.104Z,41.49
2023-05-02T13:15:23.959Z,42.62
2023-05-02T13:17:52.525Z,45.21
2023-05-02T13:20:20.461Z,45.74
2023-05-02T13:23:13.006Z,43.92
2023-05-02T13:25:40.987Z,44.87
2023-05-02T13:28:08.836Z,45.55
2023-05-02T13:30:37.001Z,43.70
2023-05-02T13:33:05.384Z,43.64
2023-05-02T13:35:35.277Z,42.04
2023-05-02T13:38:03.963Z,41.12
2023-05-02T13:40:31.770Z,40.31
2023-05-02T13:42:59.572Z,40.48
2023-05-02T13:45:27.431Z,40.24
2023-05-02T13:47:55.315Z,38.73
2023-05-02T13:50:23.121Z,36.87
2023-05-02T13:52:51.245Z,37.39
2023-05-02T13:55:19.811Z,37.22
2023-05-02T13:57:48.042Z,36.83
2023-05-02T14:00:16.388Z,37.88
2023-05-02T14:02:44.254Z,38.12
2023-05-02T14:05:12.093Z,38.33
2023-05-02T14:07:39.864Z,38.62
2023-05-02T14:10:08.556Z,38.47
2023-05-02T14:12:36.321Z,38.88
2023-05-02T14:15:04.525Z,39.52
2023-05-02T14:17:32.547Z,39.13
2023-05-02T14:20:00.729Z,39.07
2023-05-02T14:22:28.785Z,37.97
2023-05-02T14:24:56.473Z,37.88
2023-05-02T14:27:25.748Z,38.34
2023-05-02T14:29:53.733Z,38.20
2023-05-02T14:32:21.798Z,37.90
2023-05-02T14:34:49.472Z,37.96
2023-05-02T14:37:17.430Z,38.08
2023-05-02T14:39:47.440Z,37.73
2023-05-02T14:42:16.209Z,38.54
2023-05-02T14:44:43.990Z,38.87
2023-05-02T14:47:12.298Z,39.36
2023-05-02T14:54:07.804Z,40.97
2023-05-02T14:56:35.727Z,41.42
2023-05-02T14:59:04.028Z,41.17
2023-05-02T15:01:31.894Z,41.56
2023-05-02T15:04:06.506Z,41.03
2023-05-02T15:06:36.001Z,40.38
2023-05-02T15:09:05.167Z,40.05
2023-05-02T15:11:33.130Z,39.49
2023-05-02T15:14:01.069Z,39.78
2023-05-02T15:16:29.803Z,40.40
2023-05-02T15:19:25.244Z,40.59
2023-05-02T15:21:57.685Z,40.47
2023-05-02T15:24:25.883Z,41.06
2023-05-02T15:26:53.601Z,41.17
2023-05-02T15:29:21.410Z,40.71
2023-05-02T15:31:50.224Z,40.80
2023-05-02T15:34:18.150Z,40.67
2023-05-02T15:36:47.624Z,40.67
2023-05-02T15:39:15.344Z,41.16
2023-05-02T15:41:43.749Z,41.27
2023-05-02T15:44:12.052Z,41.71
2023-05-02T15:46:42.385Z,41.68
2023-05-02T15:49:10.394Z,41.78
2023-05-02T15:51:38.358Z,42.07
2023-05-02T15:54:09.533Z,42.01
2023-05-02T15:56:37.758Z,41.70
2023-05-02T15:59:05.514Z,41.77
2023-05-02T16:01:33.324Z,41.99
2023-05-02T16:04:01.454Z,42.50
2023-05-02T16:06:30.466Z,41.57
2023-05-02T16:09:48.235Z,41.35
2023-05-02T16:12:16.123Z,41.58
2023-05-02T16:15:03.638Z,41.04
2023-05-02T16:17:31.947Z,41.17
2023-05-02T16:20:02.535Z,41.51
2023-05-02T16:22:30.744Z,41.85
2023-05-02T16:24:58.630Z,41.96
2023-05-02T16:27:26.947Z,41.80
2023-05-02T16:29:54.822Z,42.14
2023-05-02T16:32:23.889Z,42.42
2023-05-02T16:35:00.054Z,42.15
2023-05-02T16:37:27.871Z,42.37
2023-05-02T16:40:21.420Z,42.60
2023-05-02T16:42:49.284Z,43.16
2023-05-02T16:45:17.015Z,43.42
2023-05-02T16:47:45.028Z,43.38
2023-05-02T16:50:12.760Z,43.62
2023-05-02T16:52:40.496Z,44.46
2023-05-02T16:55:09.036Z,44.47
2023-05-02T16:57:36.882Z,43.76
2023-05-02T17:00:05.495Z,44.03
2023-05-02T17:02:33.934Z,44.95
2023-05-02T17:05:02.466Z,44.47
2023-05-02T17:07:30.353Z,45.28
2023-05-02T17:09:58.214Z,45.75
2023-05-02T17:12:25.969Z,45.62
2023-05-02T17:14:53.812Z,45.87
2023-05-02T17:17:23.573Z,45.74
2023-05-02T17:19:51.466Z,46.01
2023-05-02T17:22:19.213Z,46.19
2023-05-02T17:24:52.828Z,46.33
2023-05-02T17:27:20.701Z,46.43
2023-05-02T17:29:48.672Z,46.79
2023-05-02T17:32:16.522Z,47.16
2023-05-02T17:34:45.051Z,47.34
2023-05-02T17:37:13.030Z,47.54
2023-05-02T17:39:40.799Z,47.71
2023-05-02T17:42:08.571Z,47.68
2023-05-02T17:44:36.358Z,47.84
2023-05-02T17:47:04.672Z,48.01
2023-05-02T17:49:33.755Z,48.14
2023-05-02T17:52:01.620Z,48.71
2023-05-02T17:54:29.482Z,48.67
2023-05-02T17:56:57.336Z,48.85
2023-05-02T17:59:25.217Z,49.02
2023-05-02T18:01:53.573Z,49.25
2023-05-02T18:04:21.411Z,49.38
2023-05-02T18:06:49.854Z,49.77
2023-05-02T18:09:17.766Z,49.97
2023-05-02T18:11:45.689Z,50.16
2023-05-02T18:14:13.656Z,50.20
2023-05-02T18:16:47.088Z,50.53
2023-05-02T18:19:16.002Z,50.61
2023-05-02T18:21:44.942Z,51.05
2023-05-02T18:24:12.770Z,50.95
2023-05-02T18:26:40.611Z,51.16
2023-05-02T18:29:09.356Z,51.36
2023-05-02T18:31:40.320Z,51.33
2023-05-02T18:34:08.410Z,51.37
2023-05-02T18:36:39.575Z,51.37
2023-05-02T18:39:08.938Z,51.54
2023-05-02T18:41:39.298Z,52.02
2023-05-02T18:44:10.500Z,52.23
2023-05-02T18:46:38.469Z,52.06
2023-05-02T18:49:09.066Z,52.22
2023-05-02T18:51:53.623Z,52.40
2023-05-02T18:54:23.393Z,52.75
2023-05-02T18:56:51.678Z,52.92
2023-05-02T18:59:19.318Z,52.70
2023-05-02T19:15:49.268Z,54.07
2023-05-02T19:18:17.290Z,54.95
2023-05-02T19:24:59.468Z,54.14
2023-05-02T19:27:27.472Z,54.01
2023-05-02T19:29:57.525Z,54.54
2023-05-02T19:32:25.414Z,55.52
2023-05-02T19:40:57.883Z,57.14
2023-05-02T19:43:25.724Z,56.85
2023-05-02T19:47:11.880Z,56.52
2023-05-02T19:49:39.660Z,57.45
2023-05-02T19:52:10.617Z,57.19
2023-05-02T19:54:38.394Z,57.16
2023-05-02T19:57:06.089Z,57.61
2023-05-02T19:59:33.742Z,57.47
2023-05-02T20:02:01.891Z,58.13
2023-05-02T20:04:29.519Z,57.76
2023-05-02T20:06:57.137Z,58.02
2023-05-02T20:09:25.220Z,58.25
2023-05-02T20:11:52.872Z,58.63
2023-05-02T20:14:20.509Z,59.00
2023-05-02T20:16:48.352Z,59.20
2023-05-02T20:19:19.978Z,59.36
2023-05-02T20:21:49.603Z,60.36
2023-05-02T20:24:17.397Z,62.28
2023-05-02T20:26:45.132Z,63.74
2023-05-02T20:29:12.946Z,65.40
2023-05-02T20:31:43.402Z,66.52
2023-05-02T20:34:11.148Z,66.88
2023-05-02T20:36:39.095Z,67.60
2023-05-02T20:39:09.152Z,67.25
2023-05-02T20:41:37.808Z,68.01
2023-05-02T20:44:06.390Z,67.55
2023-05-02T20:46:34.062Z,67.52
2023-05-02T20:56:36.315Z,68.29
2023-05-02T20:59:02.690Z,67.74
2023-05-02T21:01:32.780Z,67.71
2023-05-02T21:03:59.271Z,67.77
2023-05-02T21:06:26.089Z,67.11
2023-05-02T21:08:54.455Z,66.76
2023-05-02T21:11:21.347Z,66.80
2023-05-02T21:14:52.340Z,66.99
2023-05-02T21:17:18.850Z,66.84
2023-05-02T21:19:45.315Z,67.04
2023-05-02T21:22:11.620Z,67.36
2023-05-02T21:24:37.991Z,67.23
2023-05-02T21:27:04.907Z,67.60
2023-05-02T21:29:33.080Z,67.48
2023-05-02T21:31:59.561Z,68.14
2023-05-02T21:35:29.161Z,68.82
2023-05-02T21:37:55.795Z,69.30
2023-05-02T21:40:22.137Z,69.36
2023-05-02T21:42:48.498Z,69.42
2023-05-02T21:45:15.122Z,69.25
2023-05-02T21:47:41.450Z,69.09
2023-05-02T21:50:08.018Z,68.96
2023-05-02T21:52:34.383Z,68.54
2023-05-02T21:55:00.764Z,68.37
2023-05-02T21:57:28.849Z,68.39
2023-05-02T21:59:55.146Z,69.65
2023-05-02T22:02:22.899Z,71.47
2023-05-02T22:04:50.253Z,73.22
2023-05-02T22:07:16.564Z,72.90
2023-05-02T22:09:42.871Z,72.75
2023-05-02T22:12:09.202Z,71.90
2023-05-02T22:14:44.402Z,70.89
2023-05-02T22:17:12.966Z,70.93
2023-05-02T22:19:40.067Z,70.72
2023-05-02T22:22:06.769Z,70.74
2023-05-02T22:25:23.582Z,70.51
2023-05-02T22:27:50.210Z,70.29
2023-05-02T22:30:16.733Z,69.53
2023-05-02T22:32:43.131Z,69.94
2023-05-02T22:35:10.074Z,69.90
2023-05-02T22:37:36.493Z,69.87
2023-05-02T22:40:03.459Z,69.42
2023-05-02T22:42:30.151Z,69.03
2023-05-02T22:44:56.515Z,68.96
2023-05-02T22:47:23.028Z,68.89
2023-05-02T22:49:50.333Z,68.44
2023-05-02T22:52:17.622Z,67.44
2023-05-02T22:54:44.252Z,66.95
2023-05-02T22:57:10.548Z,67.09
2023-05-02T22:59:37.010Z,67.11
2023-05-02T23:02:03.726Z,66.85
2023-05-02T23:04:32.311Z,66.91
2023-05-02T23:06:59.185Z,66.38
2023-05-02T23:09:25.560Z,66.60
2023-05-02T23:11:52.026Z,66.90
2023-05-02T23:14:21.149Z,66.79
2023-05-02T23:16:49.234Z,66.92
2023-05-02T23:19:16.483Z,66.33
2023-05-02T23:21:42.781Z,65.42
2023-05-02T23:24:09.987Z,65.50
2023-05-02T23:26:36.255Z,65.35
2023-05-02T23:29:02.567Z,65.37
2023-05-02T23:31:29.194Z,65.02
2023-05-02T23:33:55.551Z,64.88
2023-05-02T23:36:21.881Z,65.03
2023-05-02T23:38:48.474Z,65.23
2023-05-02T23:41:15.025Z,64.91
2023-05-02T23:43:41.357Z,64.66
2023-05-02T23:46:07.696Z,64.82
2023-05-02T23:48:35.659Z,64.71
2023-05-02T23:51:01.998Z,64.91
2023-05-02T23:53:50.634Z,64.84
2023-05-02T23:56:16.942Z,64.65
2023-05-02T23:59:08.496Z,64.59
